Hershey, Nebraska
Current Conditions -  °F | °C
As of 5:53 AM on Friday 31 Oct 2014 (Local Time) from KLBF Reporting Station
Overcast Overcast  
Wind Chill: 23°   Ceiling: 900
Heat Index: 31°   Visibility: 10mi
Dew Point: 27°   Wind: 9mph
Humidity: 85%   Direction: 40°NE
Pressure: 30.5"   Gusts: NA
Location:  41.16°N, 101°W
Report Text: KLBF 311053Z AUTO 04008KT 10SM OVC009 M01/M03 A3050 RMK AO2 SLP337 T10061028
Loading
Personal Weather Stations






























Interactive Weather Map
Tropical Storm Tracking
New forecast layout! Learn more

10-Day Weather Forecast

Advertisements
Track Severe Weather on mobile